Time;durP1;ratioP1;P1;durP2;ratioP2;P2;SDS_P1;SDS_P2;PMS_P1;PMS_P2;Temp;Humidity;BMP_temperature;BMP_pressure;BME280_temperature;BME280_humidity;BME280_pressure;Samples;Min_cycle;Max_cycle;Signal;HPM_P1;HPM_P2
2023/02/11 00:17:56;;;;;;;76.10;47.50;;;;;;;-3.47;64.41;103488.00;103854;1295;1016490;-58
2023/02/11 00:20:23;;;;;;;72.00;45.10;;;;;;;-2.37;60.28;103478.09;105861;1288;22659;-57
2023/02/11 00:22:50;;;;;;;68.50;42.90;;;;;;;-2.18;59.34;103470.55;105191;1284;1003515;-56
2023/02/11 00:25:17;;;;;;;66.40;41.50;;;;;;;-2.02;59.01;103467.09;105920;1281;25588;-56
2023/02/11 00:27:44;;;;;;;66.60;41.20;;;;;;;-1.86;58.82;103464.75;106018;1285;22668;-57
2023/02/11 00:30:12;;;;;;;67.20;41.50;;;;;;;-1.67;58.25;103466.06;105863;1275;210706;-56
2023/02/11 00:32:41;;;;;;;62.20;40.30;;;;;;;-1.49;57.77;103467.46;106259;1286;25466;-56
2023/02/11 00:35:08;;;;;;;60.90;38.90;;;;;;;-1.35;57.10;103472.76;106358;1283;25470;-56
2023/02/11 00:37:35;;;;;;;65.30;39.80;;;;;;;-1.25;56.46;103472.77;106326;1279;25389;-57
2023/02/11 00:40:04;;;;;;;60.90;38.40;;;;;;;-1.19;56.13;103468.94;106250;1283;25403;-56
2023/02/11 00:42:36;;;;;;;66.80;40.00;;;;;;;-1.15;55.47;103469.70;106395;1280;25509;-56
2023/02/11 00:45:04;;;;;;;55.40;37.70;;;;;;;-1.13;55.23;103471.05;105194;1286;1002892;-56
2023/02/11 00:47:32;;;;;;;60.50;38.20;;;;;;;-1.13;54.92;103463.69;105286;1279;1003098;-56
2023/02/11 00:49:59;;;;;;;59.80;38.90;;;;;;;-1.15;54.73;103462.08;106374;1279;25386;-57
2023/02/11 00:52:27;;;;;;;53.10;35.80;;;;;;;-1.17;54.42;103459.20;106294;1279;25420;-56
2023/02/11 00:54:54;;;;;;;63.20;39.20;;;;;;;-1.19;54.31;103454.77;106337;1282;25428;-56
2023/02/11 00:57:21;;;;;;;56.20;37.60;;;;;;;-1.24;54.14;103456.67;105282;1283;1003425;-57
2023/02/11 00:59:49;;;;;;;64.50;42.20;;;;;;;-1.27;54.10;103453.38;105527;1280;1002984;-56
2023/02/11 01:02:17;;;;;;;70.30;40.60;;;;;;;-1.30;54.23;103455.19;105531;1281;1003102;-56
2023/02/11 01:04:44;;;;;;;65.30;40.70;;;;;;;-1.31;54.31;103449.88;105717;1280;1003221;-57
2023/02/11 01:07:11;;;;;;;58.90;39.10;;;;;;;-1.30;54.48;103446.84;106146;1282;25423;-56
2023/02/11 01:09:39;;;;;;;58.40;38.50;;;;;;;-1.27;54.35;103449.95;105577;1282;1003215;-56
2023/02/11 01:12:06;;;;;;;66.10;39.20;;;;;;;-1.23;54.08;103450.90;105293;1285;1003744;-56
2023/02/11 01:14:33;;;;;;;55.80;36.50;;;;;;;-1.21;54.03;103449.86;106546;1281;25358;-56
2023/02/11 01:17:00;;;;;;;60.30;38.80;;;;;;;-1.19;53.93;103446.12;106538;1274;22564;-56
2023/02/11 01:19:27;;;;;;;57.80;37.50;;;;;;;-1.17;53.80;103441.79;106542;1278;25568;-56
2023/02/11 01:21:54;;;;;;;55.60;36.40;;;;;;;-1.18;53.80;103447.41;106358;1275;25338;-57
2023/02/11 01:24:21;;;;;;;56.20;36.20;;;;;;;-1.19;53.58;103446.45;106587;1276;22552;-56
2023/02/11 01:26:48;;;;;;;55.50;35.60;;;;;;;-1.21;53.56;103445.61;106600;1276;25337;-56
2023/02/11 01:29:15;;;;;;;58.50;37.90;;;;;;;-1.24;53.47;103445.77;105809;1279;1002931;-56
2023/02/11 01:35:04;;;;;;;66.90;42.10;;;;;;;-1.28;53.42;103435.41;103619;1305;544759;-56
2023/02/11 01:37:35;;;;;;;55.10;37.20;;;;;;;-1.33;53.51;103433.92;105056;1282;1002939;-56
2023/02/11 01:40:06;;;;;;;58.90;36.70;;;;;;;-1.33;53.55;103432.03;105848;1282;25389;-56
2023/02/11 01:42:35;;;;;;;58.60;36.50;;;;;;;-1.31;53.80;103428.75;105961;1286;22547;-57
2023/02/11 01:45:41;;;;;;;54.70;36.60;;;;;;;-1.27;53.69;103428.84;106284;1275;25430;-57
2023/02/11 01:48:42;;;;;;;61.40;37.40;;;;;;;-1.23;53.38;103426.77;106176;1274;287608;-57
2023/02/11 01:51:17;;;;;;;55.60;34.80;;;;;;;-1.20;53.29;103414.05;105846;1275;1003572;-57
2023/02/11 01:59:26;;;;;;;54.00;36.00;;;;;;;-1.20;52.86;103412.63;105931;1272;1003091;-57
2023/02/11 02:01:59;;;;;;;54.40;33.90;;;;;;;-1.24;52.80;103414.60;106674;1272;22536;-57
2023/02/11 02:04:30;;;;;;;52.10;34.30;;;;;;;-1.28;52.81;103419.27;105783;1275;1003079;-57
2023/02/11 02:07:05;;;;;;;50.10;32.70;;;;;;;-1.31;52.96;103419.34;106739;1272;25434;-57
2023/02/11 02:09:45;;;;;;;62.30;38.80;;;;;;;-1.35;52.93;103417.60;106658;1272;22527;-57
2023/02/11 02:12:13;;;;;;;54.10;36.00;;;;;;;-1.37;52.91;103412.33;106684;1272;25382;-58
2023/02/11 02:14:43;;;;;;;55.70;36.60;;;;;;;-1.38;53.04;103409.71;106898;1272;25344;-57
2023/02/11 02:17:28;;;;;;;55.40;35.00;;;;;;;-1.36;53.24;103409.15;106904;1269;25369;-58
2023/02/11 02:20:15;;;;;;;52.30;33.50;;;;;;;-1.33;53.25;103410.59;106243;1270;1003320;-58
2023/02/11 02:22:50;;;;;;;54.00;35.10;;;;;;;-1.29;53.47;103407.08;106117;1269;1003153;-57
2023/02/11 02:25:40;;;;;;;58.40;34.90;;;;;;;-1.25;53.05;103410.05;106943;1269;22537;-57
2023/02/11 02:28:53;;;;;;;52.40;32.10;;;;;;;-1.23;52.77;103412.60;106786;1272;22679;-57
2023/02/11 02:31:22;;;;;;;46.50;31.10;;;;;;;-1.22;52.86;103416.91;105926;1272;1003638;-57
2023/02/11 02:34:01;;;;;;;48.70;31.90;;;;;;;-1.23;52.76;103418.55;106637;1272;25469;-57
2023/02/11 02:37:02;;;;;;;48.70;30.30;;;;;;;-1.25;52.78;103421.30;106767;1272;24135;-57
2023/02/11 02:39:32;;;;;;;46.20;29.30;;;;;;;-1.27;52.76;103417.96;105367;1280;1002999;-57
2023/02/11 02:42:00;;;;;;;50.50;30.10;;;;;;;-1.28;52.98;103419.46;106370;1278;22536;-58
2023/02/11 02:44:29;;;;;;;55.10;34.80;;;;;;;-1.29;52.90;103423.30;105498;1286;1003423;-57
2023/02/11 02:46:57;;;;;;;52.60;34.50;;;;;;;-1.29;53.23;103422.59;106369;1280;25534;-57
2023/02/11 02:49:26;;;;;;;46.90;31.50;;;;;;;-1.28;53.23;103424.19;106251;1282;25328;-57
2023/02/11 02:52:06;;;;;;;50.30;32.90;;;;;;;-1.26;53.31;103421.10;105440;1279;1003676;-57
2023/02/11 02:54:38;;;;;;;48.70;31.00;;;;;;;-1.21;53.28;103418.23;105808;1286;23878;-58
2023/02/11 02:57:31;;;;;;;48.50;33.00;;;;;;;-1.15;53.12;103418.09;105251;1281;1004202;-57
2023/02/11 03:00:38;;;;;;;49.60;30.50;;;;;;;-1.10;53.30;103409.73;106358;1278;25364;-57
2023/02/11 03:03:21;;;;;;;48.80;29.70;;;;;;;-1.07;52.89;103412.51;106248;1278;25348;-57
2023/02/11 03:06:16;;;;;;;45.60;30.40;;;;;;;-1.08;52.82;103410.63;105523;1278;1002843;-57
2023/02/11 03:08:48;;;;;;;52.10;30.00;;;;;;;-1.09;52.59;103410.32;105579;1276;1002964;-57
2023/02/11 03:11:17;;;;;;;47.50;29.90;;;;;;;-1.10;52.54;103409.05;106623;1275;25396;-57
2023/02/11 03:13:46;;;;;;;47.00;30.00;;;;;;;-1.14;52.46;103409.86;106380;1276;22528;-57
2023/02/11 03:16:21;;;;;;;43.50;28.10;;;;;;;-1.17;52.60;103410.33;105883;1270;1003595;-57
2023/02/11 03:18:55;;;;;;;47.30;29.80;;;;;;;-1.20;52.59;103411.25;106081;1266;1003060;-57
2023/02/11 03:21:23;;;;;;;53.20;33.30;;;;;;;-1.24;52.57;103409.01;106756;1277;24342;-57
2023/02/11 03:23:53;;;;;;;52.80;32.60;;;;;;;-1.25;52.45;103401.55;105959;1272;1002427;-57
2023/02/11 03:26:32;;;;;;;48.80;31.30;;;;;;;-1.26;52.66;103404.77;106828;1269;22530;-57
2023/02/11 03:29:24;;;;;;;48.20;31.00;;;;;;;-1.24;52.87;103403.91;106628;1273;22556;-57
2023/02/11 03:31:53;;;;;;;48.60;30.10;;;;;;;-1.18;52.82;103399.48;105954;1273;1003835;-57
2023/02/11 03:34:37;;;;;;;46.90;29.00;;;;;;;-1.13;52.68;103396.60;106720;1269;23740;-57
2023/02/11 03:37:18;;;;;;;43.70;27.80;;;;;;;-1.10;52.66;103396.52;106130;1269;1002928;-57
2023/02/11 03:39:55;;;;;;;42.10;27.10;;;;;;;-1.08;52.49;103394.93;106813;1269;25381;-57
2023/02/11 03:42:26;;;;;;;44.60;28.90;;;;;;;-1.08;52.27;103397.84;106730;1273;25356;-57
2023/02/11 03:45:05;;;;;;;45.80;29.40;;;;;;;-1.08;52.26;103393.52;106725;1276;23419;-57
2023/02/11 03:47:37;;;;;;;47.50;30.10;;;;;;;-1.11;52.19;103392.17;106821;1273;25428;-57
2023/02/11 03:50:06;;;;;;;44.50;28.40;;;;;;;-1.14;52.02;103391.10;106980;1270;22545;-57
2023/02/11 03:52:36;;;;;;;;;;;;;;;-1.19;52.09;103389.59;106241;1269;1002949;-57
2023/02/11 03:55:09;;;;;;;46.50;28.40;;;;;;;-1.22;52.18;103387.80;106151;1269;1003169;-57
2023/02/11 03:57:38;;;;;;;46.50;29.00;;;;;;;-1.27;51.96;103388.35;106092;1270;1003273;-57
2023/02/11 04:00:08;;;;;;;52.70;32.50;;;;;;;-1.31;52.12;103388.02;107022;1269;25484;-57
2023/02/11 04:02:40;;;;;;;56.10;33.50;;;;;;;-1.35;52.31;103387.80;106152;1269;1003787;-57
2023/02/11 04:05:13;;;;;;;45.60;30.50;;;;;;;-1.36;52.34;103385.34;106708;1269;22995;-57
2023/02/11 04:07:41;;;;;;;;;;;;;;;-1.35;52.29;103386.27;105906;1269;1003152;-56
2023/02/11 04:10:12;;;;;;;48.70;30.70;;;;;;;-1.33;52.61;103385.70;106513;1270;25541;-57
2023/02/11 04:12:41;;;;;;;47.50;31.00;;;;;;;-1.30;52.36;103380.61;105838;1269;1002874;-58
2023/02/11 04:15:09;;;;;;;48.80;30.00;;;;;;;-1.28;52.37;103385.89;106446;1268;22520;-57
2023/02/11 04:17:38;;;;;;;45.30;30.60;;;;;;;-1.26;52.59;103384.84;105837;1273;1003120;-57
2023/02/11 04:20:08;;;;;;;45.40;29.30;;;;;;;-1.25;52.33;103386.07;106055;1272;1003143;-57
2023/02/11 04:22:36;;;;;;;44.80;29.40;;;;;;;-1.25;52.01;103384.55;106746;1268;22750;-57
2023/02/11 04:25:05;;;;;;;44.60;29.20;;;;;;;-1.26;52.13;103388.93;106070;1269;1003679;-57
2023/02/11 04:27:34;;;;;;;44.80;29.10;;;;;;;-1.28;51.97;103388.79;107070;1269;22542;-57
2023/02/11 04:30:04;;;;;;;41.60;27.40;;;;;;;-1.31;52.16;103386.73;107047;1269;25392;-57
2023/02/11 04:32:33;;;;;;;47.60;29.60;;;;;;;-1.34;52.10;103388.21;106743;1269;25369;-58
2023/02/11 04:35:02;;;;;;;51.30;32.90;;;;;;;-1.37;52.31;103389.48;106985;1269;22535;-56
2023/02/11 04:37:31;;;;;;;49.10;31.30;;;;;;;-1.40;52.09;103393.71;106951;1269;25392;-57
2023/02/11 04:39:59;;;;;;;44.90;30.60;;;;;;;-1.41;52.18;103395.85;106252;1269;1003394;-57
2023/02/11 04:42:32;;;;;;;46.80;29.80;;;;;;;-1.41;52.28;103394.34;106154;1269;1002881;-57
2023/02/11 04:45:01;;;;;;;46.00;29.10;;;;;;;-1.38;52.23;103392.81;106831;1268;23858;-58
2023/02/11 04:47:29;;;;;;;43.90;28.60;;;;;;;-1.35;52.27;103395.77;106215;1272;1003539;-57
2023/02/11 04:49:58;;;;;;;45.10;29.00;;;;;;;-1.33;52.05;103395.41;106255;1270;1002839;-57
2023/02/11 04:52:26;;;;;;;42.90;27.90;;;;;;;-1.30;52.02;103384.85;106905;1269;25337;-57
2023/02/11 04:54:55;;;;;;;42.20;27.80;;;;;;;-1.31;51.95;103382.09;106098;1269;1002969;-57
2023/02/11 04:57:23;;;;;;;45.00;28.40;;;;;;;-1.31;51.88;103381.93;106884;1253;25603;-57
2023/02/11 04:59:52;;;;;;;46.50;27.60;;;;;;;-1.32;51.69;103382.54;106175;1270;1002953;-57
2023/02/11 05:02:20;;;;;;;44.40;26.10;;;;;;;-1.35;51.66;103385.43;106996;1269;25533;-56
2023/02/11 05:04:49;;;;;;;42.40;27.70;;;;;;;-1.37;51.72;103389.17;106718;1272;25376;-57
2023/02/11 05:07:18;;;;;;;42.00;26.60;;;;;;;-1.40;51.71;103383.36;106886;1269;23861;-57
2023/02/11 05:09:46;;;;;;;39.00;25.90;;;;;;;-1.42;51.61;103380.33;106895;1269;22529;-57
2023/02/11 05:12:14;;;;;;;46.50;29.90;;;;;;;-1.44;51.64;103380.86;106904;1269;25365;-57
2023/02/11 05:14:43;;;;;;;44.50;28.30;;;;;;;-1.46;51.61;103378.98;106822;1273;25354;-56
2023/02/11 05:17:12;;;;;;;44.10;27.90;;;;;;;-1.47;51.74;103376.19;106212;1269;1003122;-57
2023/02/11 05:19:41;;;;;;;41.50;27.70;;;;;;;-1.45;52.04;103377.02;106188;1269;1002953;-57
2023/02/11 05:22:11;;;;;;;39.50;26.00;;;;;;;-1.41;52.07;103375.63;106815;1268;25376;-56
2023/02/11 05:24:41;;;;;;;38.40;26.20;;;;;;;-1.35;52.20;103379.07;106943;1269;25379;-57
2023/02/11 05:27:09;;;;;;;38.10;25.20;;;;;;;-1.30;52.05;103375.38;106149;1269;1002286;-57
2023/02/11 05:29:38;;;;;;;40.30;25.20;;;;;;;-1.26;52.00;103370.35;107007;1269;25354;-57
2023/02/11 05:32:07;;;;;;;40.60;25.40;;;;;;;-1.23;51.88;103373.44;106876;1270;25347;-57
2023/02/11 05:34:36;;;;;;;37.90;25.00;;;;;;;-1.21;51.78;103373.05;106117;1268;1003238;-57
2023/02/11 05:37:08;;;;;;;37.40;25.20;;;;;;;-1.21;51.74;103374.11;106794;1269;25500;-57
2023/02/11 05:39:36;;;;;;;39.60;24.60;;;;;;;-1.20;51.64;103381.34;106864;1269;25491;-58
2023/02/11 05:42:05;;;;;;;42.20;25.30;;;;;;;-1.19;51.80;103380.33;106768;1270;24397;-57
2023/02/11 05:44:34;;;;;;;36.50;24.70;;;;;;;-1.20;51.88;103380.13;106073;1271;1003158;-57
2023/02/11 05:47:03;;;;;;;36.50;23.30;;;;;;;-1.21;51.64;103378.70;106786;1272;22530;-56
2023/02/11 05:49:32;;;;;;;41.90;28.10;;;;;;;-1.22;51.70;103380.52;106917;1269;25388;-56
2023/02/11 05:52:00;;;;;;;40.90;26.50;;;;;;;-1.22;51.74;103378.64;106228;1269;1003307;-57
2023/02/11 05:54:29;;;;;;;40.40;26.30;;;;;;;-1.21;51.97;103378.02;106191;1269;1002680;-56
2023/02/11 05:56:57;;;;;;;38.70;26.10;;;;;;;-1.17;52.30;103379.83;106756;1270;22530;-57
2023/02/11 05:59:26;;;;;;;37.60;24.70;;;;;;;-1.11;52.07;103379.36;106944;1269;25375;-57
2023/02/11 06:01:54;;;;;;;38.50;25.20;;;;;;;-1.03;52.32;103378.71;106257;1272;1003788;-57
2023/02/11 06:04:23;;;;;;;34.80;22.90;;;;;;;-0.96;52.35;103375.30;106804;1269;24244;-57
2023/02/11 06:06:51;;;;;;;35.90;23.70;;;;;;;-0.86;52.27;103376.81;106113;1270;1003090;-57
2023/02/11 06:09:21;;;;;;;35.50;22.70;;;;;;;-0.73;52.21;103369.14;106952;1269;25373;-56
2023/02/11 06:11:49;;;;;;;38.00;23.40;;;;;;;-0.57;52.07;103370.23;106943;1269;25243;-56
2023/02/11 06:14:19;;;;;;;34.00;22.20;;;;;;;-0.35;51.58;103370.98;106858;1272;25376;-57
2023/02/11 06:16:47;;;;;;;33.00;21.00;;;;;;;-0.10;51.25;103366.29;106001;1272;1003828;-56
2023/02/11 06:19:15;;;;;;;30.40;21.20;;;;;;;0.19;50.80;103361.90;106909;1269;25388;-57
2023/02/11 06:21:44;;;;;;;30.30;20.90;;;;;;;0.47;50.25;103355.43;106099;1274;1002958;-57
2023/02/11 06:24:13;;;;;;;29.90;21.10;;;;;;;0.75;49.78;103349.14;105946;1269;1002977;-57
2023/02/11 06:26:43;;;;;;;32.10;20.80;;;;;;;1.04;49.09;103347.93;106671;1269;22656;-57
2023/02/11 06:29:12;;;;;;;38.40;26.30;;;;;;;1.31;48.54;103345.79;106674;1269;25388;-57
2023/02/11 06:31:41;;;;;;;33.50;23.50;;;;;;;1.53;48.24;103345.33;106640;1269;22790;-57
2023/02/11 06:34:10;;;;;;;31.70;21.50;;;;;;;1.73;47.90;103343.68;106525;1272;22537;-57
2023/02/11 06:36:42;;;;;;;32.70;22.50;;;;;;;1.89;47.55;103333.95;106631;1269;25424;-57
2023/02/11 06:39:11;;;;;;;32.60;22.60;;;;;;;2.02;47.64;103334.48;106746;1269;22659;-57
2023/02/11 06:41:40;;;;;;;35.00;23.40;;;;;;;2.14;47.42;103332.59;106757;1252;22533;-57
2023/02/11 06:44:09;;;;;;;28.40;20.70;;;;;;;2.27;46.96;103332.77;106799;1276;22624;-57
2023/02/11 06:46:37;;;;;;;32.70;21.90;;;;;;;2.37;46.63;103333.14;106096;1271;1003831;-57
2023/02/11 06:49:06;;;;;;;32.20;21.60;;;;;;;2.39;46.07;103331.17;106848;1270;25351;-57
2023/02/11 06:51:34;;;;;;;30.90;21.70;;;;;;;2.37;46.21;103321.83;106971;1269;25370;-57
2023/02/11 06:54:04;;;;;;;29.70;20.20;;;;;;;2.43;46.29;103323.17;106272;1268;1003494;-57
2023/02/11 06:56:32;;;;;;;27.20;19.50;;;;;;;2.52;46.10;103323.96;106914;1268;22613;-57
2023/02/11 06:59:01;;;;;;;27.20;19.20;;;;;;;2.63;46.34;103317.40;106269;1268;1003435;-57
2023/02/11 07:01:30;;;;;;;29.60;19.70;;;;;;;2.75;45.94;103311.80;106189;1269;1003121;-57
2023/02/11 07:03:58;;;;;;;27.40;18.70;;;;;;;2.82;45.56;103316.50;106971;1268;22536;-57
2023/02/11 07:06:27;;;;;;;25.10;19.00;;;;;;;2.86;45.31;103315.13;106761;1269;25574;-57
2023/02/11 07:08:55;;;;;;;25.40;18.10;;;;;;;2.87;45.49;103315.19;106151;1269;1003167;-57
2023/02/11 07:11:27;;;;;;;22.60;15.70;;;;;;;2.88;45.57;103313.86;106807;1270;25379;-57
2023/02/11 07:14:00;;;;;;;25.10;17.60;;;;;;;2.86;45.68;103307.95;106843;1272;24740;-57
2023/02/11 07:16:29;;;;;;;26.40;19.20;;;;;;;2.79;45.62;103306.71;106204;1269;1002933;-57
2023/02/11 07:19:01;;;;;;;30.50;18.20;;;;;;;2.72;45.81;103303.79;106173;1269;1002883;-57
2023/02/11 07:21:29;;;;;;;25.90;18.10;;;;;;;2.68;46.46;103299.48;106946;1272;25379;-57
2023/02/11 07:23:58;;;;;;;22.40;16.70;;;;;;;2.66;46.81;103295.60;107027;1272;24409;-57
2023/02/11 07:26:27;;;;;;;25.60;18.10;;;;;;;2.66;47.20;103297.14;106247;1269;1003210;-57
2023/02/11 07:28:57;;;;;;;26.70;17.60;;;;;;;2.68;47.54;103302.37;107142;1269;22538;-57
2023/02/11 07:31:27;;;;;;;27.00;17.10;;;;;;;2.72;48.25;103301.17;106927;1269;25348;-57
2023/02/11 07:33:59;;;;;;;24.00;17.60;;;;;;;2.80;48.47;103304.17;106965;1269;22520;-57
2023/02/11 07:36:30;;;;;;;24.40;18.60;;;;;;;2.86;48.53;103299.55;106895;1272;25353;-57
2023/02/11 07:38:59;;;;;;;26.00;19.00;;;;;;;2.89;48.59;103301.89;106106;1269;1003746;-57
2023/02/11 07:41:28;;;;;;;27.60;18.50;;;;;;;2.87;48.58;103301.12;106218;1269;1003421;-57
2023/02/11 07:43:56;;;;;;;32.80;20.50;;;;;;;2.85;48.24;103300.30;106682;1276;22754;-57
2023/02/11 07:46:26;;;;;;;29.90;21.00;;;;;;;2.80;48.23;103300.06;106823;1269;25379;-57
2023/02/11 07:48:55;;;;;;;32.10;21.30;;;;;;;2.74;48.57;103294.81;106900;1269;25535;-57
2023/02/11 07:51:27;;;;;;;34.20;21.70;;;;;;;2.72;48.92;103297.77;106903;1270;25399;-57
2023/02/11 07:53:57;;;;;;;30.30;20.80;;;;;;;2.73;49.18;103297.98;106244;1269;1002480;-57
2023/02/11 07:56:26;;;;;;;32.60;21.90;;;;;;;2.74;49.32;103293.79;106949;1269;22530;-58
2023/02/11 07:58:55;;;;;;;33.60;21.40;;;;;;;2.80;49.27;103286.86;106989;1269;25376;-57
2023/02/11 08:01:27;;;;;;;35.90;22.80;;;;;;;2.86;49.08;103286.99;106896;1268;25341;-57
2023/02/11 08:03:56;;;;;;;39.00;24.40;;;;;;;2.88;49.11;103290.04;106772;1272;24201;-57
2023/02/11 08:06:26;;;;;;;33.30;23.50;;;;;;;2.90;49.02;103288.78;106194;1269;1003312;-57
2023/02/11 08:08:54;;;;;;;30.50;20.90;;;;;;;2.93;49.32;103289.61;105766;1275;1003803;-57
2023/02/11 08:11:25;;;;;;;32.40;22.50;;;;;;;2.96;49.61;103284.24;106159;1254;1003679;-57
2023/02/11 08:13:54;;;;;;;30.10;19.60;;;;;;;3.00;49.29;103281.73;106164;1273;1003685;-57
2023/02/11 08:16:25;;;;;;;27.00;18.70;;;;;;;3.07;48.78;103280.52;106048;1272;1017329;-58
2023/02/11 08:18:58;;;;;;;27.70;19.80;;;;;;;3.12;48.05;103277.67;106712;1272;25418;-57
2023/02/11 08:21:27;;;;;;;27.50;18.80;;;;;;;3.14;47.92;103283.28;106717;1278;22552;-57
2023/02/11 08:23:56;;;;;;;28.20;19.20;;;;;;;3.15;47.67;103279.38;106785;1270;22655;-58
2023/02/11 08:26:26;;;;;;;28.90;18.70;;;;;;;3.16;47.28;103273.59;106917;1259;25376;-57
2023/02/11 08:28:55;;;;;;;26.20;18.70;;;;;;;3.15;47.16;103274.05;106752;1272;22587;-58
2023/02/11 08:31:25;;;;;;;30.50;20.10;;;;;;;3.13;46.84;103271.91;106776;1272;22526;-57
2023/02/11 08:33:56;;;;;;;26.80;19.10;;;;;;;3.12;47.16;103269.48;106654;1272;25679;-57
2023/02/11 08:36:28;;;;;;;30.20;20.40;;;;;;;3.15;47.32;103268.38;106558;1270;23977;-57
2023/02/11 08:39:02;;;;;;;31.60;20.60;;;;;;;3.18;46.75;103271.27;106526;1271;22587;-58
2023/02/11 08:41:50;;;;;;;30.80;20.70;;;;;;;3.22;47.16;103269.06;106570;1274;25334;-57
2023/02/11 08:44:19;;;;;;;35.50;21.50;;;;;;;3.28;47.51;103267.67;105681;1279;1002800;-57
2023/02/11 08:46:47;;;;;;;31.30;21.00;;;;;;;3.36;48.11;103264.73;106216;1275;24288;-57
2023/02/11 08:49:16;;;;;;;34.00;22.10;;;;;;;3.41;47.96;103267.05;105981;1269;1002792;-57
2023/02/11 08:51:45;;;;;;;33.90;23.40;;;;;;;3.46;47.99;103262.13;105730;1272;1002442;-57
2023/02/11 08:54:13;;;;;;;39.60;23.50;;;;;;;3.48;48.28;103259.16;106652;1272;25424;-57
2023/02/11 08:56:43;;;;;;;33.40;23.00;;;;;;;3.52;48.45;103264.14;106308;1269;1002965;-58
2023/02/11 08:59:16;;;;;;;32.40;21.90;;;;;;;3.54;48.71;103261.14;106727;1272;25379;-57
2023/02/11 09:01:46;;;;;;;32.70;22.20;;;;;;;3.56;48.58;103262.95;106961;1269;22506;-57
2023/02/11 09:04:15;;;;;;;33.50;22.40;;;;;;;3.57;48.87;103258.20;106923;1272;22634;-57
2023/02/11 09:06:44;;;;;;;30.00;20.40;;;;;;;3.62;49.33;103250.70;106195;1269;1002838;-57
2023/02/11 09:09:13;;;;;;;32.40;20.90;;;;;;;3.73;49.02;103244.87;106239;1269;1003651;-58
2023/02/11 09:11:42;;;;;;;27.50;20.70;;;;;;;3.85;49.00;103238.77;106943;1269;22529;-57
2023/02/11 09:14:15;;;;;;;25.50;18.70;;;;;;;3.98;48.52;103235.91;106853;1273;22532;-57
2023/02/11 09:16:45;;;;;;;29.30;19.60;;;;;;;4.10;48.56;103230.94;106860;1275;25354;-58
2023/02/11 09:19:17;;;;;;;25.90;18.50;;;;;;;4.21;48.15;103227.62;106235;1269;1003400;-57
2023/02/11 09:21:45;;;;;;;25.10;18.20;;;;;;;4.28;47.92;103223.30;106937;1269;25383;-58
2023/02/11 09:24:14;;;;;;;28.70;20.70;;;;;;;4.33;47.93;103221.98;106985;1272;25425;-57
2023/02/11 09:26:43;;;;;;;27.20;18.90;;;;;;;4.40;47.65;103222.79;106944;1269;25500;-57
2023/02/11 09:29:11;;;;;;;25.50;18.50;;;;;;;4.47;47.60;103223.11;106182;1269;1003848;-57
2023/02/11 09:31:41;;;;;;;24.80;19.10;;;;;;;4.56;47.68;103218.67;106955;1269;25344;-58
2023/02/11 09:34:10;;;;;;;25.10;19.50;;;;;;;4.63;47.35;103214.69;106935;1269;22533;-57
2023/02/11 09:36:39;;;;;;;27.10;19.00;;;;;;;4.67;47.13;103210.38;106681;1270;22524;-57
2023/02/11 09:39:11;;;;;;;27.40;18.80;;;;;;;4.73;47.30;103205.31;106826;1269;25378;-58
2023/02/11 09:41:58;;;;;;;28.00;19.40;;;;;;;4.80;47.38;103202.14;107094;1269;25354;-57
2023/02/11 09:44:29;;;;;;;28.90;18.80;;;;;;;4.85;47.40;103198.92;106985;1276;25284;-58
2023/02/11 09:47:03;;;;;;;27.70;19.90;;;;;;;4.91;47.32;103197.44;106893;1269;25354;-57
2023/02/11 09:49:42;;;;;;;31.00;21.00;;;;;;;4.93;47.49;103194.10;106922;1269;22534;-58
2023/02/11 09:52:17;;;;;;;33.70;23.10;;;;;;;4.94;47.51;103189.12;106094;1267;1003781;-58
2023/02/11 09:54:52;;;;;;;34.30;24.00;;;;;;;4.94;47.81;103188.45;106942;1269;25379;-57
2023/02/11 09:57:20;;;;;;;36.40;24.20;;;;;;;4.94;47.78;103183.66;107099;1272;24578;-58
2023/02/11 09:59:56;;;;;;;29.30;21.00;;;;;;;4.97;47.97;103181.66;107079;1269;25375;-57
2023/02/11 10:02:28;;;;;;;29.30;20.10;;;;;;;4.95;47.97;103181.43;106821;1269;22519;-58
2023/02/11 10:05:27;;;;;;;27.60;20.40;;;;;;;4.94;47.99;103177.27;106839;1275;22679;-57
2023/02/11 10:08:08;;;;;;;27.90;19.30;;;;;;;4.93;47.99;103173.77;106947;1269;23466;-58
2023/02/11 10:10:49;;;;;;;29.90;20.10;;;;;;;4.91;48.12;103170.25;106121;1270;1003092;-58
2023/02/11 10:13:37;;;;;;;28.40;20.00;;;;;;;4.88;48.21;103165.15;107074;1269;22525;-58
2023/02/11 10:16:27;;;;;;;29.20;20.40;;;;;;;4.83;48.19;103161.16;106941;1269;24450;-57
2023/02/11 10:19:18;;;;;;;30.10;21.20;;;;;;;4.78;48.37;103157.54;106931;1269;23457;-57
2023/02/11 10:21:49;;;;;;;36.90;25.10;;;;;;;4.77;48.53;103151.62;106043;1276;1003286;-57
2023/02/11 10:24:20;;;;;;;34.20;22.40;;;;;;;4.77;49.07;103146.67;106238;1270;1003067;-57
2023/02/11 10:26:49;;;;;;;39.20;24.90;;;;;;;4.81;48.98;103138.21;106880;1269;25366;-57
2023/02/11 10:29:41;;;;;;;31.10;22.10;;;;;;;4.84;48.88;103130.77;106790;1272;23863;-57
2023/02/11 10:32:26;;;;;;;28.30;20.90;;;;;;;4.88;48.89;103124.03;106859;1259;24246;-58
2023/02/11 10:34:57;;;;;;;32.00;22.00;;;;;;;4.94;48.82;103119.45;106758;1275;25382;-57
2023/02/11 10:37:26;;;;;;;32.80;22.60;;;;;;;5.00;48.58;103112.64;106593;1276;22529;-57
2023/02/11 10:39:55;;;;;;;34.50;24.10;;;;;;;5.07;48.21;103105.34;106698;1272;24212;-57
2023/02/11 10:42:23;;;;;;;30.50;22.30;;;;;;;5.13;48.13;103101.95;106577;1272;25344;-58
2023/02/11 10:44:59;;;;;;;37.90;24.40;;;;;;;5.21;48.06;103098.46;105830;1275;1003062;-57
2023/02/11 10:47:31;;;;;;;33.10;22.70;;;;;;;5.25;48.16;103093.61;106543;1272;22533;-57
2023/02/11 10:50:02;;;;;;;31.30;22.10;;;;;;;5.28;48.01;103088.23;106725;1272;24225;-58
2023/02/11 10:52:31;;;;;;;33.40;23.10;;;;;;;5.28;47.93;103084.29;106662;1269;25344;-58
2023/02/11 10:55:21;;;;;;;29.80;22.10;;;;;;;5.28;48.05;103082.75;106929;1272;25570;-58
2023/02/11 10:57:49;;;;;;;34.00;23.50;;;;;;;5.26;48.00;103076.48;106959;1271;22531;-58
2023/02/11 11:00:37;;;;;;;30.00;22.10;;;;;;;5.26;47.80;103075.59;106314;1272;1003014;-58
2023/02/11 11:03:16;;;;;;;28.60;20.80;;;;;;;5.30;47.71;103082.11;107070;1269;22538;-58
2023/02/11 11:06:00;;;;;;;29.10;20.70;;;;;;;5.37;47.31;103080.30;106758;1269;25353;-58
2023/02/11 11:08:46;;;;;;;30.10;19.70;;;;;;;5.42;46.89;103082.73;106768;1270;22529;-58
2023/02/11 11:11:21;;;;;;;28.50;21.00;;;;;;;5.49;46.39;103080.23;106956;1269;25580;-57
2023/02/11 11:13:53;;;;;;;31.10;21.10;;;;;;;5.53;46.50;103079.19;106334;1270;1003214;-58
2023/02/11 11:16:21;;;;;;;28.90;21.50;;;;;;;5.66;46.38;103073.10;106949;1269;25341;-58
2023/02/11 11:19:04;;;;;;;29.90;21.60;;;;;;;5.76;46.41;103067.44;106858;1269;25369;-58
2023/02/11 11:21:32;;;;;;;27.30;20.50;;;;;;;5.88;46.34;103058.40;107031;1269;25379;-58
2023/02/11 11:24:02;;;;;;;29.90;22.30;;;;;;;5.99;46.31;103054.98;107055;1269;23450;-58
2023/02/11 11:27:00;;;;;;;29.80;20.40;;;;;;;6.10;45.89;103053.45;106816;1270;22528;-59
2023/02/11 11:29:47;;;;;;;29.00;20.50;;;;;;;6.21;45.88;103047.43;106444;1273;25250;-58
2023/02/11 11:32:19;;;;;;;27.60;20.10;;;;;;;6.31;46.03;103040.71;106546;1272;25347;-58
2023/02/11 11:34:52;;;;;;;28.60;21.00;;;;;;;6.39;46.17;103040.45;106651;1273;25391;-58
2023/02/11 11:37:36;;;;;;;25.70;20.60;;;;;;;6.46;46.10;103034.30;106493;1273;22544;-58
2023/02/11 11:40:15;;;;;;;30.80;21.50;;;;;;;6.53;45.99;103026.05;106843;1273;24254;-58
2023/02/11 11:42:43;;;;;;;28.90;21.20;;;;;;;6.57;46.26;103023.44;106635;1273;25456;-58
2023/02/11 11:45:14;;;;;;;30.80;20.60;;;;;;;6.62;46.55;103024.44;106587;1273;25463;-59
2023/02/11 11:48:21;;;;;;;25.50;20.10;;;;;;;6.66;46.74;103019.38;106650;1277;22631;-58
2023/02/11 11:50:52;;;;;;;27.60;20.00;;;;;;;6.70;47.32;103009.17;106298;1276;24343;-58